Flight Track Log - Related Links

Times and Time Zones

All times are in EDT time to prevent confusion due to time zone crossing. See the GJS3707 flight status page for this flight to view local times or setup timezone preferences in your user account.

Time Position Orientation Groundspeed Altitude Reporting Facility
EDT Latitude Longitude Course Direction KTS MPH feet Rate Location/Type
03:06PM 43.5111 -116.0753 116° Southeast 221 254 6,900  Level Salt Lake Center
03:07PM 43.6325 -115.7226 79° East  Level FlightAware Approximate
03:07PM 43.4892 -115.9717 106° East 276 318 9,300  Level Salt Lake Center
03:08PM 43.6584 -115.5544 78° East  Level FlightAware Approximate
03:08PM 43.5094 -115.8581 76° East 293 337 11,900  Level Salt Lake Center
03:09PM 43.6772 -115.3844 83° East  Level FlightAware Approximate
03:09PM 43.5297 -115.7478 76° East 305 351 13,300  Level Salt Lake Center
03:10PM 43.7014 -115.2210 81° East  Level FlightAware Approximate
03:10PM 43.5531 -115.6103 77° East 351 404 14,400  Level Salt Lake Center
03:11PM 43.5786 -115.4617 77° East 376 433 16,000 1,548 Climbing Salt Lake Center
03:12PM 43.6067 -115.3053 76° East 400 460 17,600 1,500 Climbing Salt Lake Center
03:13PM 43.6336 -115.1422 77° East 417 480 19,100 1,452 Climbing Salt Lake Center
03:14PM 43.6606 -114.9828 77° East 423 487 20,600 1,403 Climbing Salt Lake Center
03:15PM 43.6867 -114.8269 77° East 434 499 22,000 1,452 Climbing Salt Lake Center
03:16PM 43.7181 -114.6433 77° East 440 506 23,600 1,306 Climbing Salt Lake Center
03:17PM 43.7439 -114.4811 78° East 452 520 24,700 1,113 Climbing Salt Lake Center
03:18PM 43.7758 -114.2872 77° East 463 533 25,900 1,113 Climbing Salt Lake Center
03:19PM 43.8047 -114.1183 77° East 470 541 27,000 1,113 Climbing Salt Lake Center
03:20PM 43.8336 -113.9186 79° East 474 545 28,200 1,016 Climbing Salt Lake Center
03:21PM 43.8483 -113.7456 83° East 472 543 29,100 871 Climbing Salt Lake Center
03:22PM 43.8575 -113.5350 86° East 492 566 30,000 823 Climbing Salt Lake Center
03:23PM 43.8636 -113.3547 87° East 491 565 30,800 919 Climbing Salt Lake Center
03:24PM 43.8747 -113.1425 86° East 493 567 31,900 1,113 Climbing Salt Lake Center
03:26PM 43.8831 -112.9639 86° East 490 564 33,100 1,016 Climbing Salt Lake Center
03:27PM 43.8917 -112.7575 87° East 483 556 34,000 774 Climbing Salt Lake Center
03:28PM 43.9000 -112.5808 86° East 481 554 34,700 726 Climbing Salt Lake Center
03:29PM 43.9092 -112.3747 86° East 482 555 35,500 726 Climbing Salt Lake Center
03:30PM 43.9158 -112.1989 87° East 481 554 36,200 726 Climbing Salt Lake Center
03:31PM 43.9250 -111.9950 86° East 478 550 37,000 387 Climbing Salt Lake Center
03:32PM 43.9306 -111.8181 87° East 481 554 37,000  Level Salt Lake Center
03:33PM 43.9375 -111.6108 87° East 484 557 37,000  Level Salt Lake Center
03:34PM 43.9444 -111.4294 87° East 491 565 37,000  Level Salt Lake Center
03:35PM 43.9508 -111.2169 88° East 495 570 37,000  Level Salt Lake Center
03:36PM 43.9561 -111.0347 88° East 496 571 37,000  Level Salt Lake Center
03:37PM 43.9639 -110.8167 87° East 507 583 37,000  Level Salt Lake Center
03:38PM 43.9689 -110.6314 88° East 505 581 37,000  Level Salt Lake Center
03:39PM 43.9747 -110.4450 87° East 507 583 37,000  Level Salt Lake Center
03:40PM 43.9786 -110.2286 88° East 503 579 37,000  Level Salt Lake Center
03:41PM 43.9831 -110.0433 88° East 503 579 37,000  Level Salt Lake Center
03:42PM 43.9867 -109.8267 89° East 504 580 37,000  Level Salt Lake Center
03:43PM 43.9917 -109.6389 88° East 506 582 37,000  Level Salt Lake Center
03:44PM 43.9939 -109.4208 89° East 508 585 37,000  Level Salt Lake Center
03:45PM 43.9958 -109.2342 89° East 506 582 37,000  Level Salt Lake Center
03:46PM 43.9994 -109.0133 89° East 511 588 37,000  Level Salt Lake Center
03:47PM 44.0014 -108.8253 89° East 511 588 37,000  Level Salt Lake Center
03:48PM 44.0044 -108.6042 89° East 513 590 37,000  Level Salt Lake Center
03:49PM 44.0044 -108.4147 90° East 514 592 37,000  Level Salt Lake Center
03:50PM 44.0061 -108.2192 89° East 510 587 37,000  Level Salt Lake Center
03:51PM 44.0067 -107.9983 90° East 510 587 37,000  Level Salt Lake Center
03:52PM 44.0069 -107.8097 90° East 511 588 37,000  Level Salt Lake Center
03:53PM 44.0081 -107.5897 90° East 511 588 37,000  Level Salt Lake Center
03:54PM 44.0075 -107.4006 90° East 512 589 37,000  Level Salt Lake Center
03:55PM 44.0061 -107.1972 90° East 513 590 37,000  Level Salt Lake Center
03:57PM 44.0050 -106.9753 90° East 513 590 37,000  Level Salt Lake Center
03:58PM 44.0047 -106.7844 90° East 516 594 37,000  Level Salt Lake Center
03:59PM 44.0022 -106.5619 91° East 516 594 37,000  Level Salt Lake Center
04:00PM 44.0003 -106.3728 91° East 513 590 37,000  Level Salt Lake Center
04:01PM 44.0022 -106.1519 89° East 512 589 37,000  Level Salt Lake Center
04:02PM 44.0031 -105.9617 90° East 513 590 37,000  Level Salt Lake Center
04:03PM 44.0044 -105.7381 89° East 515 593 37,000  Level Salt Lake Center
04:04PM 44.0044 -105.5492 90° East 514 592 37,000  Level Salt Lake Center
04:05PM 44.0036 -105.3239 90° East 515 593 37,000  Level Denver Center
04:06PM 44.0028 -105.1331 90° East 516 594 37,000  Level Denver Center
04:07PM 44.0028 -104.9108 90° East 515 593 37,000  Level Denver Center
04:08PM 44.0017 -104.7189 90° East 516 594 37,000  Level Denver Center
04:09PM 43.9997 -104.4981 91° East 515 593 37,000  Level Denver Center
04:10PM 43.9978 -104.3089 91° East 513 590 37,000  Level Denver Center
04:11PM 43.9958 -104.1217 91° East 510 587 37,000  Level Denver Center
04:12PM 43.9931 -103.8992 91° East 514 592 37,000  Level Denver Center
04:13PM 43.9906 -103.7092 91° East 514 592 37,000  Level Denver Center
04:14PM 43.9856 -103.4858 92° East 516 594 37,000  Level Denver Center
04:15PM 43.9808 -103.2928 92° East 520 598 37,000  Level Denver Center
04:16PM 43.9781 -103.0744 91° East 512 589 37,000  Level Denver Center
04:17PM 43.9739 -102.8861 92° East 509 586 37,000  Level Denver Center
04:18PM 43.9694 -102.6969 92° East 512 589 37,000  Level Denver Center
04:19PM 43.9606 -102.4578 93° East 516 594 37,000  Level Denver Center
04:20PM 43.9533 -102.2600 93° East 516 594 37,000  Level Denver Center
04:21PM 43.9450 -102.0633 93° East 513 590 37,000  Level Denver Center
04:22PM 43.9381 -101.8658 93° East 514 592 37,000  Level Denver Center
04:23PM 43.9344 -101.6753 91° East 506 582 37,000  Level Denver Center
04:24PM 43.9264 -101.4789 93° East 510 587 37,000  Level Denver Center
04:26PM 43.9169 -101.2456 93° East 508 585 37,000  Level Denver Center
04:27PM 43.9100 -101.0533 93° East 505 581 37,000  Level Minneapolis Center
04:28PM 43.8994 -100.8239 94° East 502 578 37,000  Level Minneapolis Center
04:29PM 43.8919 -100.6322 93° East 500 575 37,000  Level Minneapolis Center
04:30PM 43.8825 -100.4381 94° East 505 581 37,000  Level Minneapolis Center
04:32PM 43.8631 -100.0569 94° East 499 574 37,000  Level Minneapolis Center
04:33PM 43.8536 -99.8667 94° East 498 573 37,000  Level Minneapolis Center
04:34PM 43.8414 -99.6339 94° East 504 580 37,000  Level Minneapolis Center
04:35PM 43.8303 -99.4447 95° East 498 573 37,000  Level Minneapolis Center
04:36PM 43.8194 -99.2544 94° East 497 572 37,000  Level Minneapolis Center
04:37PM 43.8086 -99.0642 94° East 497 572 37,000  Level Minneapolis Center
04:38PM 43.7972 -98.8731 95° East 499 574 37,000  Level Minneapolis Center
04:39PM 43.7833 -98.6492 95° East 497 572 37,000  Level Minneapolis Center
04:40PM 43.7714 -98.4603 95° East 495 570 37,000  Level Minneapolis Center
04:41PM 43.7586 -98.2694 95° East 498 573 37,000  Level Minneapolis Center
04:42PM 43.7464 -98.0808 95° East 496 571 37,000  Level Minneapolis Center
04:43PM 43.7331 -97.8931 96° East 493 567 37,000  Level Minneapolis Center
04:44PM 43.7167 -97.6672 96° East 494 568 37,000  Level Minneapolis Center
04:45PM 43.7036 -97.4789 95° East 494 568 37,000  Level Minneapolis Center
04:46PM 43.6889 -97.2908 96° East 495 570 37,000  Level Minneapolis Center
04:47PM 43.6750 -97.1036 96° East 493 567 37,000  Level Minneapolis Center
04:48PM 43.6606 -96.9167 96° East 493 567 37,000  Level Minneapolis Center
04:49PM 43.6428 -96.7322 98° East 491 565 37,000  Level Minneapolis Center
04:50PM 43.6103 -96.5136 102° East 489 563 37,000  Level Minneapolis Center
04:52PM 43.5831 -96.3311 102° East 489 563 37,000  Level Minneapolis Center
04:53PM 43.5564 -96.1494 101° East 490 564 37,000  Level Minneapolis Center
04:54PM 43.5286 -95.9692 102° East 487 560 37,000  Level Minneapolis Center
04:55PM 43.4956 -95.7506 102° East 489 563 37,000  Level Minneapolis Center
04:56PM 43.4675 -95.5706 102° East 487 560 37,000  Level Minneapolis Center
04:57PM 43.4386 -95.3903 102° East 486 559 37,000  Level Minneapolis Center
04:58PM 43.4111 -95.2092 102° East 486 559 37,000  Level Minneapolis Center
04:59PM 43.3819 -95.0283 102° East 486 559 37,000  Level Minneapolis Center
05:00PM 43.3522 -94.8461 103° East 491 565 37,000  Level Minneapolis Center
05:01PM 43.3244 -94.6256 100° East 489 563 37,000  Level Minneapolis Center
05:02PM 43.3086 -94.4403 97° East 490 564 37,000  Level Minneapolis Center
05:03PM 43.2889 -94.2553 98° East 492 566 37,000  Level Minneapolis Center
05:04PM 43.2664 -94.0664 99° East 493 567 37,000  Level Minneapolis Center
05:05PM 43.2486 -93.8817 97° East 493 567 37,000  Level Minneapolis Center
05:06PM 43.2258 -93.7003 100° East 490 564 37,000  Level Minneapolis Center
05:07PM 43.2006 -93.4803 99° East 491 565 37,000  Level Minneapolis Center
05:08PM 43.1800 -93.2981 99° East 490 564 37,000 -145 Level Minneapolis Center
05:09PM 43.1614 -93.1172 98° East 486 559 36,700 -581 Descending Minneapolis Center
05:10PM 43.1386 -92.9383 100° East 483 556 35,800 -823 Descending Minneapolis Center
05:11PM 43.1175 -92.7581 99° East 483 556 35,000 -387 Descending Minneapolis Center
05:12PM 43.0917 -92.5450 99° East 478 550 35,000  Level Minneapolis Center
05:13PM 43.0703 -92.3681 99° East 477 549 35,000 -321 Level Minneapolis Center
05:14PM 43.0514 -92.2261 100° East 477 549 34,400 -857 Descending Chicago Center
05:15PM 43.0289 -92.0447 100° East 485 558 33,400 -968 Descending Chicago Center
05:16PM 43.0061 -91.8617 100° East 489 563 32,400 -968 Descending Chicago Center
05:17PM 42.9842 -91.6758 99° East 492 566 31,400 -677 Descending Chicago Center
05:18PM 42.9594 -91.4564 99° East 483 556 31,000 -194 Descending Chicago Center
05:19PM 42.9464 -91.2925 96° East 438 504 31,000  Level Chicago Center
05:20PM 42.9322 -91.1328 97° East 426 490 31,000 -290 Level Chicago Center
05:21PM 42.9189 -90.9719 96° East 429 494 30,400 -768 Descending Chicago Center
05:22PM 42.9047 -90.8142 97° East 425 489 29,400 -960 Descending Chicago Center
05:23PM 42.8917 -90.6558 96° East 426 490 28,400 -1,065 Descending Chicago Center
05:24PM 42.8725 -90.4506 97° East 458 527 27,200 -1,065 Descending Chicago Center
05:25PM 42.8569 -90.2869 97° East 443 510 26,200 -968 Descending Chicago Center
05:26PM 42.8425 -90.1247 97° East 437 503 25,200 -968 Descending Chicago Center
05:28PM 42.8044 -89.9658 108° East 447 514 24,200 -1,306 Descending Chicago Center
05:29PM 42.7525 -89.7847 111° Southeast 439 505 22,500 -1,597 Descending Chicago Center
05:30PM 42.7114 -89.6369 111° Southeast 420 483 20,900 -1,548 Descending Chicago Center
05:31PM 42.6722 -89.4981 111° Southeast 399 459 19,300 -1,548 Descending Chicago Center
05:32PM 42.6333 -89.3644 112° Southeast 384 442 17,700 -1,584 Descending Chicago Center
05:33PM 42.5872 -89.2094 112° Southeast 380 437 16,000 -1,296 Descending Chicago Center
05:34PM 42.5508 -89.0842 111° Southeast 361 415 15,000 -919 Descending Chicago Center
05:35PM 42.5158 -88.9658 112° Southeast 340 391 14,100 -1,065 Descending Chicago Center
05:36PM 42.4814 -88.8556 113° Southeast 322 371 12,800 -1,258 Descending Chicago Center
05:37PM 42.4486 -88.7453 112° Southeast 316 364 11,500 -1,355 Descending Chicago Center
05:38PM 42.4114 -88.6208 112° Southeast 308 354 10,000 -1,161 Descending Chicago Center
05:39PM 42.3778 -88.5136 113° Southeast 307 353 9,100 -774 Descending Chicago Center
05:40PM 42.3333 -88.4203 123° Southeast 295 339 8,400 -823 Descending Chicago Center
05:41PM 42.2922 -88.3319 122° Southeast 295 339 7,400 -1,065 Descending Chicago Center
05:42PM 42.2400 -88.2269 124° Southeast 285 328 6,200 -1,008 Descending Chicago Center
05:43PM 42.1861 -88.1558 136° Southeast 277 319 5,300 -816 Descending Chicago Center
05:44PM 42.1322 -88.0944 140° Southeast 261 300 4,500 -1,109 Descending Chicago Center
05:45PM 42.0833 -88.0333 137° Southeast 211 243 3,100 -871 Descending Chicago TRACON
05:47PM 42.0139 -87.9567 141° Southeast 189 217 1,800 -605 Descending Chicago Center
05:49PM 41.9817 -87.9067 143° Southeast  Level Estimated
05:56PM 41.9817 -87.9067 143° Southeast  Level Estimated

Login

Don't have an account? Register now (free) for customized features, flight alerts, and more!